Time;durP1;ratioP1;P1;durP2;ratioP2;P2;SDS_P1;SDS_P2;PMS_P1;PMS_P2;Temp;Humidity;BMP_temperature;BMP_pressure;BME280_temperature;BME280_humidity;BME280_pressure;Samples;Min_cycle;Max_cycle;Signal;HPM_P1;HPM_P2
2022/06/25 00:00:52;;;;;;;5.07;2.13;;;;;;;19.65;91.54;100192.69;5022949;28;20396;-65
2022/06/25 00:03:20;;;;;;;7.00;2.43;;;;;;;19.64;92.00;100194.53;5022955;28;20678;-64
2022/06/25 00:05:48;;;;;;;5.43;2.07;;;;;;;19.67;91.58;100206.75;5019186;28;20783;-64
2022/06/25 00:08:16;;;;;;;6.40;2.10;;;;;;;19.63;91.81;100200.13;5025608;28;20235;-64
2022/06/25 00:10:44;;;;;;;4.63;2.40;;;;;;;19.56;92.36;100208.22;5026392;28;20725;-65
2022/06/25 00:13:10;;;;;;;7.37;2.43;;;;;;;19.51;94.22;100202.69;5020292;28;20296;-64
2022/06/25 00:15:39;;;;;;;7.77;1.93;;;;;;;19.48;94.08;100203.91;5020185;28;20205;-64
2022/06/25 00:18:08;;;;;;;4.60;2.17;;;;;;;19.49;94.74;100202.88;5021399;28;20220;-65
2022/06/25 00:20:35;;;;;;;5.70;2.17;;;;;;;19.51;93.51;100213.44;5019344;28;20251;-65
2022/06/25 00:23:03;;;;;;;3.93;2.30;;;;;;;19.42;93.40;100223.56;5016613;28;20206;-65
2022/06/25 00:25:31;;;;;;;4.27;2.23;;;;;;;19.36;94.63;100220.88;5028118;28;20589;-65
2022/06/25 00:27:59;;;;;;;7.50;2.43;;;;;;;19.40;95.62;100217.56;5023139;28;20725;-65
2022/06/25 00:30:28;;;;;;;4.87;2.17;;;;;;;19.41;95.54;100229.16;5020289;28;20319;-64
2022/06/25 00:32:57;;;;;;;4.57;2.20;;;;;;;19.50;94.41;100227.91;5023737;28;20316;-65
2022/06/25 00:35:26;;;;;;;5.53;2.07;;;;;;;19.53;92.82;100224.78;5019638;28;20209;-65
2022/06/25 00:37:54;;;;;;;4.87;2.20;;;;;;;19.62;92.05;100231.56;5022897;28;20216;-65
2022/06/25 00:40:21;;;;;;;3.53;2.03;;;;;;;19.70;91.34;100223.25;5020489;28;20715;-65
2022/06/25 00:42:50;;;;;;;5.17;2.33;;;;;;;19.81;91.10;100227.16;5022725;28;20284;-65
2022/06/25 00:45:18;;;;;;;4.07;1.93;;;;;;;19.76;90.22;100229.69;5022190;28;20312;-65
2022/06/25 00:47:46;;;;;;;4.27;2.30;;;;;;;19.79;90.08;100226.56;5020362;28;20733;-65
2022/06/25 00:50:15;;;;;;;5.50;2.13;;;;;;;19.67;90.47;100228.25;5018945;28;20304;-65
2022/06/25 00:52:43;;;;;;;5.27;2.37;;;;;;;19.57;90.65;100234.09;5026807;28;20319;-65
2022/06/25 00:55:15;;;;;;;5.23;2.30;;;;;;;19.57;91.16;100234.09;5024330;28;20295;-65
2022/06/25 00:57:44;;;;;;;4.13;2.27;;;;;;;19.48;90.68;100228.13;5023193;28;20204;-65
2022/06/25 01:00:15;;;;;;;5.93;2.13;;;;;;;19.52;91.12;100236.59;5021682;28;20303;-65
2022/06/25 01:02:43;;;;;;;9.47;2.50;;;;;;;19.54;91.36;100234.50;5020637;28;20247;-65
2022/06/25 01:05:13;;;;;;;7.17;2.67;;;;;;;19.56;91.04;100232.44;5023919;28;20205;-65
2022/06/25 01:07:47;;;;;;;7.30;3.13;;;;;;;19.43;91.24;100238.66;5023316;28;20244;-65
2022/06/25 01:10:15;;;;;;;9.77;3.70;;;;;;;19.32;91.97;100236.63;5023934;28;20218;-66
2022/06/25 01:12:43;;;;;;;4.13;2.50;;;;;;;19.28;92.49;100245.31;5018244;28;20314;-65
2022/06/25 01:15:15;;;;;;;9.97;2.97;;;;;;;19.23;92.59;100240.56;5026715;28;20209;-65
2022/06/25 01:17:44;;;;;;;4.63;2.73;;;;;;;19.17;93.48;100244.91;5023442;28;20745;-64
2022/06/25 01:20:12;;;;;;;8.77;3.10;;;;;;;19.17;93.80;100244.91;5018353;28;20296;-64
2022/06/25 01:22:41;;;;;;;9.83;3.00;;;;;;;19.28;93.58;100245.31;5022219;28;20209;-64
2022/06/25 01:25:10;;;;;;;14.30;3.40;;;;;;;19.37;92.07;100249.41;5019569;28;20556;-64
2022/06/25 01:27:39;;;;;;;5.23;3.13;;;;;;;19.33;93.20;100253.56;5021106;28;20266;-65
2022/06/25 01:30:12;;;;;;;7.97;2.70;;;;;;;19.31;93.32;100255.66;5019921;28;20704;-64
2022/06/25 01:32:39;;;;;;;10.27;3.27;;;;;;;19.31;93.49;100250.25;5020997;28;20715;-64
2022/06/25 01:35:09;;;;;;;7.83;3.23;;;;;;;19.32;94.07;100249.22;5028724;28;20232;-64
2022/06/25 01:37:37;;;;;;;10.50;3.73;;;;;;;19.39;93.02;100252.72;5028028;28;20232;-64
2022/06/25 01:40:09;;;;;;;15.90;3.90;;;;;;;19.44;92.18;100253.72;5026699;28;20291;-64
2022/06/25 01:45:22;;;;;;;7.80;2.87;;;;;;;19.24;92.82;100247.59;5026277;28;20216;-65
2022/06/25 01:47:51;;;;;;;7.30;2.70;;;;;;;19.30;92.92;100248.59;5029495;28;20214;-65
2022/06/25 01:50:18;;;;;;;7.80;2.97;;;;;;;19.34;92.73;100255.22;5025940;28;20209;-65
2022/06/25 01:52:47;;;;;;;17.33;3.20;;;;;;;19.28;93.36;100253.38;5026342;28;20279;-65
2022/06/25 01:55:17;;;;;;;6.50;3.00;;;;;;;19.28;93.31;100245.31;5027485;28;20248;-65
2022/06/25 01:57:45;;;;;;;8.37;3.07;;;;;;;19.30;92.57;100251.28;5024911;28;20646;-65
2022/06/25 02:00:16;;;;;;;6.33;2.63;;;;;;;19.24;92.65;100254.84;5026437;28;20287;-65
2022/06/25 02:02:45;;;;;;;5.07;2.40;;;;;;;19.08;93.48;100262.31;5024660;28;20251;-65
2022/06/25 02:05:15;;;;;;;6.03;2.87;;;;;;;19.07;94.33;100266.03;5024151;28;20208;-65
2022/06/25 02:07:43;;;;;;;5.83;2.70;;;;;;;19.10;94.63;100270.13;5017019;28;20202;-65
2022/06/25 02:10:11;;;;;;;4.90;2.90;;;;;;;19.02;94.71;100270.34;5011861;28;20291;-65
2022/06/25 02:12:40;;;;;;;9.10;3.07;;;;;;;19.02;94.73;100267.66;5024288;28;20326;-64
2022/06/25 02:15:09;;;;;;;5.20;2.50;;;;;;;19.06;93.75;100274.28;5022446;28;20689;-64
2022/06/25 02:17:36;;;;;;;6.13;2.40;;;;;;;19.07;93.18;100276.78;5024916;28;20208;-65
2022/06/25 02:20:05;;;;;;;7.03;3.13;;;;;;;19.07;93.50;100274.09;5026578;28;20213;-65
2022/06/25 02:22:33;;;;;;;11.30;3.00;;;;;;;19.09;93.11;100279.22;5025392;28;20243;-65
2022/06/25 02:25:01;;;;;;;7.30;2.80;;;;;;;19.15;92.12;100281.94;5022551;28;20654;-65
2022/06/25 02:27:29;;;;;;;6.93;3.03;;;;;;;19.20;92.44;100278.59;5021665;28;20293;-65
2022/06/25 02:29:59;;;;;;;14.30;3.23;;;;;;;19.24;91.80;100282.53;5024699;28;20237;-65
2022/06/25 02:32:26;;;;;;;6.27;3.00;;;;;;;19.28;90.96;100281.06;5023392;28;20635;-65
2022/06/25 02:34:54;;;;;;;8.37;3.30;;;;;;;19.34;90.93;100282.94;5021475;28;20213;-65
2022/06/25 02:37:22;;;;;;;6.93;3.33;;;;;;;19.36;89.56;100274.66;5019890;28;20205;-65
2022/06/25 02:39:50;;;;;;;6.07;3.00;;;;;;;19.37;90.27;100281.69;5027726;28;20244;-65
2022/06/25 02:42:18;;;;;;;6.93;2.97;;;;;;;19.33;90.22;100281.28;5026684;28;20586;-66
2022/06/25 02:44:45;;;;;;;5.53;3.00;;;;;;;19.34;90.57;100277.56;5023518;28;20217;-65
2022/06/25 02:47:14;;;;;;;7.17;3.30;;;;;;;19.31;90.81;100274.47;5022218;28;20258;-64
2022/06/25 02:49:42;;;;;;;7.63;2.57;;;;;;;19.23;90.85;100280.06;5023935;28;20218;-65
2022/06/25 02:52:10;;;;;;;10.20;2.53;;;;;;;19.21;91.07;100271.38;5029221;28;20888;-65
2022/06/25 02:54:38;;;;;;;4.77;3.27;;;;;;;19.27;90.75;100267.84;5024629;28;20215;-64
2022/06/25 02:59:51;;;;;;;6.47;3.00;;;;;;;19.20;90.96;100272.41;5022453;28;20949;-65
2022/06/25 03:02:21;;;;;;;6.17;2.47;;;;;;;19.25;90.30;100284.19;5024927;28;20248;-64
2022/06/25 03:04:49;;;;;;;5.73;2.37;;;;;;;19.16;90.11;100291.66;5023299;28;20232;-65
2022/06/25 03:07:17;;;;;;;9.67;2.73;;;;;;;19.08;90.21;100293.72;5022450;28;20578;-64
2022/06/25 03:09:45;;;;;;;3.77;2.30;;;;;;;19.02;91.03;100289.16;5029945;28;20216;-65
2022/06/25 03:12:13;;;;;;;7.90;2.73;;;;;;;18.94;91.02;100290.19;5022911;28;20236;-64
2022/06/25 03:14:41;;;;;;;6.83;2.57;;;;;;;18.87;91.38;100292.06;5023576;28;20682;-64
2022/06/25 03:17:09;;;;;;;7.87;2.53;;;;;;;18.85;91.62;100295.97;5022425;28;20227;-64
2022/06/25 03:19:39;;;;;;;5.43;2.53;;;;;;;18.94;91.62;100292.88;5024626;28;20212;-64
2022/06/25 03:22:06;;;;;;;10.90;2.90;;;;;;;19.03;90.54;100290.81;5025361;28;20662;-64
2022/06/25 03:24:34;;;;;;;6.40;2.63;;;;;;;19.12;89.68;100293.09;5024644;28;20207;-64
2022/06/25 03:27:02;;;;;;;6.03;2.77;;;;;;;19.09;89.02;100301.56;5024296;28;20303;-64
2022/06/25 03:29:30;;;;;;;5.20;2.93;;;;;;;18.97;89.26;100305.91;5021227;28;20846;-64
2022/06/25 03:31:58;;;;;;;10.53;3.00;;;;;;;18.88;90.59;100299.09;5025146;28;20252;-64
2022/06/25 03:34:26;;;;;;;5.17;2.30;;;;;;;18.92;90.79;100304.88;5022841;28;20264;-64
2022/06/25 03:36:55;;;;;;;3.77;2.30;;;;;;;18.83;90.64;100298.03;5025852;28;20220;-65
2022/06/25 03:39:23;;;;;;;7.00;2.70;;;;;;;18.80;90.56;100296.63;5022998;28;20308;-64
2022/06/25 03:41:50;;;;;;;4.40;2.27;;;;;;;18.88;90.56;100301.78;5023951;28;20263;-63
2022/06/25 03:44:18;;;;;;;3.43;2.30;;;;;;;18.89;90.39;100300.75;5023028;28;20197;-64
2022/06/25 03:46:46;;;;;;;11.53;2.60;;;;;;;18.88;90.28;100304.47;5030063;28;20214;-64
2022/06/25 03:49:14;;;;;;;5.27;2.77;;;;;;;18.97;89.93;100307.78;5021493;28;20713;-64
2022/06/25 03:51:42;;;;;;;7.67;2.73;;;;;;;18.82;89.92;100309.84;5023751;28;20296;-64
2022/06/25 03:54:11;;;;;;;6.30;2.53;;;;;;;18.83;90.39;100309.63;5027035;28;20231;-66
2022/06/25 03:56:39;;;;;;;5.53;2.40;;;;;;;18.76;90.40;100316.84;5021371;28;20660;-64
2022/06/25 03:59:07;;;;;;;10.80;2.50;;;;;;;18.73;91.32;100315.38;5023439;28;20388;-64
2022/06/25 04:01:34;;;;;;;9.87;2.70;;;;;;;18.76;91.00;100322.22;5027250;28;20284;-63
2022/06/25 04:04:02;;;;;;;7.77;2.60;;;;;;;18.74;92.27;100318.91;5023100;28;20207;-64
2022/06/25 04:06:30;;;;;;;6.13;2.40;;;;;;;18.71;92.80;100308.59;5020267;28;20213;-64
2022/06/25 04:08:59;;;;;;;6.20;2.73;;;;;;;18.64;93.46;100319.31;5023004;28;20272;-64
2022/06/25 04:11:28;;;;;;;5.50;2.77;;;;;;;18.66;93.41;100313.72;5019002;28;20228;-64
2022/06/25 04:13:56;;;;;;;11.73;3.10;;;;;;;18.65;93.58;100320.13;5017577;28;20370;-64
2022/06/25 04:16:24;;;;;;;6.53;2.57;;;;;;;18.67;93.91;100315.38;5020699;28;20208;-65
2022/06/25 04:18:52;;;;;;;4.63;2.93;;;;;;;18.84;93.74;100327.38;5022756;28;20580;-66
2022/06/25 04:21:20;;;;;;;7.17;2.90;;;;;;;18.88;92.07;100317.91;5023458;28;20247;-66
2022/06/25 04:23:48;;;;;;;9.37;3.30;;;;;;;18.86;92.82;100317.28;5020547;28;20209;-65
2022/06/25 04:26:15;;;;;;;5.27;2.90;;;;;;;18.89;92.32;100322.25;5024463;28;20839;-65
2022/06/25 04:31:31;;;;;;;11.83;3.53;;;;;;;18.85;92.68;100320.16;5020437;28;20220;-65
2022/06/25 04:33:59;;;;;;;6.90;2.87;;;;;;;18.86;92.91;100324.50;5017129;28;20232;-65
2022/06/25 04:36:27;;;;;;;4.97;2.87;;;;;;;18.87;93.04;100329.69;5023692;28;20212;-64
2022/06/25 04:38:56;;;;;;;6.37;3.00;;;;;;;18.92;93.28;100327.19;5009385;28;20217;-65
2022/06/25 04:41:24;;;;;;;9.77;3.33;;;;;;;18.93;93.48;100320.78;5009909;28;20217;-65
2022/06/25 04:43:53;;;;;;;6.17;3.60;;;;;;;18.93;94.00;100320.78;5012109;28;20681;-66
2022/06/25 04:46:21;;;;;;;8.83;3.63;;;;;;;18.99;93.29;100329.91;5024232;28;20228;-65
2022/06/25 04:48:49;;;;;;;9.97;3.77;;;;;;;19.01;93.74;100334.00;5023269;28;20212;-65
2022/06/25 04:51:16;;;;;;;7.43;3.63;;;;;;;19.01;93.69;100336.69;5021887;28;20255;-65
2022/06/25 04:53:56;;;;;;;8.33;3.70;;;;;;;18.97;94.22;100334.66;5024157;28;20640;-65
2022/06/25 04:56:26;;;;;;;9.63;3.90;;;;;;;18.93;94.91;100342.28;5023289;28;20767;-65
2022/06/25 04:58:55;;;;;;;11.20;4.13;;;;;;;19.00;95.11;100343.09;5023330;28;20647;-65
2022/06/25 05:01:23;;;;;;;6.17;3.70;;;;;;;19.11;94.53;100342.50;5017445;28;20209;-65
2022/06/25 05:03:52;;;;;;;8.43;3.87;;;;;;;19.15;94.79;100349.13;5023626;28;20209;-65
2022/06/25 05:06:20;;;;;;;6.57;3.70;;;;;;;19.21;94.44;100352.00;5017504;28;20205;-65
2022/06/25 05:08:48;;;;;;;9.40;3.90;;;;;;;19.22;94.09;100349.13;5020935;28;20212;-65
2022/06/25 05:11:16;;;;;;;5.70;3.57;;;;;;;19.21;94.42;100355.53;5022583;28;20206;-65
2022/06/25 05:13:44;;;;;;;11.63;3.60;;;;;;;19.20;93.94;100355.72;5013550;28;20225;-65
2022/06/25 05:16:13;;;;;;;5.97;3.70;;;;;;;19.27;94.66;100356.53;5028855;28;20728;-65
2022/06/25 05:18:41;;;;;;;8.80;3.30;;;;;;;19.38;94.72;100355.94;5022831;28;20302;-65
2022/06/25 05:21:09;;;;;;;8.27;3.87;;;;;;;19.37;94.76;100355.09;5021173;28;20757;-65
2022/06/25 05:23:43;;;;;;;11.67;4.07;;;;;;;19.36;94.10;100358.00;5024468;28;20218;-64
2022/06/25 05:26:11;;;;;;;7.13;3.70;;;;;;;19.45;94.29;100349.50;5025899;28;20301;-65
2022/06/25 05:28:39;;;;;;;7.40;3.40;;;;;;;19.63;93.52;100356.97;5021888;28;20213;-66
2022/06/25 05:31:07;;;;;;;5.47;3.03;;;;;;;19.69;92.58;100356.16;5023035;28;20234;-65
2022/06/25 05:33:36;;;;;;;5.07;3.80;;;;;;;19.82;91.84;100368.72;5022899;28;20209;-65
2022/06/25 05:36:04;;;;;;;8.03;4.20;;;;;;;19.90;91.69;100363.94;5023191;28;20363;-65
2022/06/25 05:38:32;;;;;;;5.83;3.30;;;;;;;19.83;90.77;100371.22;5019619;28;20288;-65
2022/06/25 05:41:00;;;;;;;7.53;4.47;;;;;;;19.79;91.53;100383.41;5025743;28;20209;-66
2022/06/25 05:43:28;;;;;;;11.10;3.30;;;;;;;19.81;91.34;100370.59;5021145;28;20300;-65
2022/06/25 05:45:56;;;;;;;10.13;3.87;;;;;;;19.83;91.40;100373.91;5024419;28;20343;-65
2022/06/25 05:48:23;;;;;;;4.97;3.13;;;;;;;19.99;91.11;100371.78;5025336;28;20308;-65
2022/06/25 05:50:52;;;;;;;8.03;3.67;;;;;;;20.13;91.04;100378.78;5027220;28;20233;-65
2022/06/25 05:53:20;;;;;;;9.90;3.77;;;;;;;20.22;89.73;100380.22;5026310;28;20242;-65
2022/06/25 05:55:48;;;;;;;7.20;2.83;;;;;;;20.30;89.10;100379.97;5020301;28;20237;-65
2022/06/25 05:58:16;;;;;;;10.00;3.87;;;;;;;20.31;88.09;100387.00;5023463;28;20296;-65
2022/06/25 06:00:44;;;;;;;8.53;3.97;;;;;;;20.20;89.25;100390.34;5020879;28;20213;-65
2022/06/25 06:03:12;;;;;;;11.77;4.03;;;;;;;20.19;89.79;100392.22;5020984;28;20220;-65
2022/06/25 06:05:40;;;;;;;6.67;3.40;;;;;;;20.18;90.70;100395.13;5018500;28;20220;-65
2022/06/25 06:08:09;;;;;;;5.07;2.87;;;;;;;20.23;88.86;100389.91;5020022;28;20550;-65
2022/06/25 06:10:37;;;;;;;6.30;3.53;;;;;;;20.22;89.62;100399.06;5017365;28;20202;-65
2022/06/25 06:13:04;;;;;;;10.07;3.23;;;;;;;20.22;88.49;100391.81;5026008;28;20217;-65
2022/06/25 06:15:32;;;;;;;6.07;3.33;;;;;;;20.30;88.24;100393.44;5018972;28;20313;-65
2022/06/25 06:18:00;;;;;;;7.33;3.10;;;;;;;20.35;89.00;100403.56;5020867;28;20222;-66
2022/06/25 06:20:28;;;;;;;5.83;2.67;;;;;;;20.49;89.64;100406.00;5017305;28;20268;-66
2022/06/25 06:22:56;;;;;;;8.00;2.37;;;;;;;20.55;86.95;100407.03;5014935;28;20594;-65
2022/06/25 06:25:26;;;;;;;5.40;2.40;;;;;;;20.62;85.96;100399.72;5022201;28;20288;-65
2022/06/25 06:27:54;;;;;;;7.10;2.93;;;;;;;20.70;85.89;100401.34;5012157;28;20205;-65
2022/06/25 06:30:21;;;;;;;5.13;2.40;;;;;;;20.73;84.30;100396.34;4999758;28;20232;-66
2022/06/25 06:32:49;;;;;;;5.20;2.30;;;;;;;20.64;84.49;100403.88;5009823;28;20312;-65
2022/06/25 06:35:17;;;;;;;7.77;2.30;;;;;;;20.55;83.75;100404.31;5017707;28;20234;-66
2022/06/25 06:37:45;;;;;;;6.03;2.30;;;;;;;20.52;85.30;100389.41;5020850;28;20251;-65
2022/06/25 06:40:13;;;;;;;4.37;1.83;;;;;;;20.67;85.17;100385.63;5022385;28;20683;-65
2022/06/25 06:42:42;;;;;;;6.50;2.37;;;;;;;20.81;83.83;100387.19;5019977;28;20299;-66
2022/06/25 06:45:11;;;;;;;6.53;2.30;;;;;;;20.79;82.08;100379.31;5021407;28;20289;-65
2022/06/25 06:47:38;;;;;;;6.03;2.33;;;;;;;20.84;82.24;100384.06;5020959;28;20208;-65
2022/06/25 06:50:06;;;;;;;4.10;2.10;;;;;;;20.82;80.83;100386.16;5016994;28;20328;-66
2022/06/25 06:52:34;;;;;;;4.97;1.80;;;;;;;20.88;81.28;100393.34;5020972;28;20209;-65
2022/06/25 06:55:04;;;;;;;4.90;2.00;;;;;;;20.84;81.34;100392.97;5021241;28;20335;-64
2022/06/25 06:57:32;;;;;;;6.90;2.57;;;;;;;20.96;81.80;100393.09;5018957;28;20304;-65
2022/06/25 07:00:04;;;;;;;3.67;2.30;;;;;;;21.10;82.00;100400.06;5020376;28;20209;-65
2022/06/25 07:02:33;;;;;;;10.43;2.80;;;;;;;21.24;81.64;100398.13;5020293;28;20712;-64
2022/06/25 07:05:02;;;;;;;6.47;2.40;;;;;;;21.30;82.10;100392.66;5019077;28;20250;-64
2022/06/25 07:07:30;;;;;;;6.80;2.30;;;;;;;21.27;80.48;100393.13;5017024;28;20339;-66
2022/06/25 07:09:58;;;;;;;5.03;2.50;;;;;;;21.32;80.88;100390.56;5021241;28;20213;-65
2022/06/25 07:12:26;;;;;;;4.20;2.37;;;;;;;21.39;80.13;100402.13;5018827;28;20213;-65
2022/06/25 07:14:53;;;;;;;7.80;3.00;;;;;;;21.42;79.75;100400.88;5020778;28;20760;-66
2022/06/25 07:17:23;;;;;;;3.73;2.33;;;;;;;21.44;80.34;100403.34;5020829;28;20211;-65
2022/06/25 07:19:52;;;;;;;7.87;2.40;;;;;;;21.45;79.25;100405.00;5020954;28;20213;-67
2022/06/25 07:22:19;;;;;;;7.23;3.00;;;;;;;21.48;79.25;100396.44;5021771;28;20749;-66
2022/06/25 07:24:47;;;;;;;3.70;2.27;;;;;;;21.47;79.87;100398.31;5018582;28;20292;-65
2022/06/25 07:27:15;;;;;;;4.23;2.27;;;;;;;21.47;79.53;100389.41;5018902;28;20212;-65
2022/06/25 07:29:43;;;;;;;5.83;2.50;;;;;;;21.46;79.26;100398.56;5021173;28;20670;-64
2022/06/25 07:32:11;;;;;;;5.00;2.37;;;;;;;21.56;79.82;100394.31;5018426;28;20320;-65
2022/06/25 07:34:40;;;;;;;7.10;2.53;;;;;;;21.74;78.11;100394.34;5022643;28;20218;-65
2022/06/25 07:37:08;;;;;;;5.00;2.60;;;;;;;21.90;78.44;100394.81;5023899;28;20226;-65
2022/06/25 07:39:36;;;;;;;5.77;2.53;;;;;;;21.93;77.69;100395.19;5019686;28;20241;-66
2022/06/25 07:42:04;;;;;;;4.73;2.80;;;;;;;21.86;77.55;100389.03;5025224;28;20244;-65
2022/06/25 07:44:32;;;;;;;3.93;2.50;;;;;;;21.77;76.57;100393.06;5017587;28;20210;-66
2022/06/25 07:47:00;;;;;;;6.33;2.20;;;;;;;21.82;77.23;100395.09;5027092;28;20304;-66
2022/06/25 07:49:28;;;;;;;4.83;2.70;;;;;;;21.87;79.00;100408.75;5025964;28;20204;-67
2022/06/25 07:51:56;;;;;;;5.03;2.33;;;;;;;21.86;79.18;100388.22;5028164;28;20300;-65
2022/06/25 07:54:26;;;;;;;5.93;3.10;;;;;;;21.90;78.18;100398.31;5025818;28;20204;-66
2022/06/25 07:56:54;;;;;;;4.93;2.70;;;;;;;21.93;76.11;100397.06;5022944;28;20323;-67
2022/06/25 07:59:22;;;;;;;6.83;2.60;;;;;;;22.02;75.41;100388.47;5022779;28;20204;-67
2022/06/25 08:01:50;;;;;;;4.00;2.50;;;;;;;22.05;77.42;100379.94;5021936;28;20307;-67
2022/06/25 08:04:18;;;;;;;3.57;2.50;;;;;;;22.08;75.96;100381.34;5020452;28;20223;-67
2022/06/25 08:06:47;;;;;;;3.07;2.17;;;;;;;22.04;75.51;100386.38;5024706;28;20590;-67
2022/06/25 08:09:16;;;;;;;4.17;2.50;;;;;;;22.06;76.48;100378.88;5024047;28;20215;-66
2022/06/25 08:11:43;;;;;;;5.07;2.97;;;;;;;22.07;76.40;100383.25;5019960;28;20215;-67
2022/06/25 08:14:11;;;;;;;5.93;2.70;;;;;;;22.13;76.28;100381.50;5025191;28;20208;-66
2022/06/25 08:16:39;;;;;;;3.97;2.47;;;;;;;22.14;76.22;100386.69;5024475;28;20244;-67
2022/06/25 08:19:07;;;;;;;5.97;2.50;;;;;;;22.14;76.48;100383.16;5023144;28;20247;-66
2022/06/25 08:21:35;;;;;;;5.93;2.83;;;;;;;22.12;77.67;100374.44;5015134;28;20217;-67
2022/06/25 08:24:03;;;;;;;5.17;2.60;;;;;;;22.12;77.10;100382.56;4998794;28;20259;-68
2022/06/25 08:26:32;;;;;;;4.80;2.23;;;;;;;22.08;76.78;100379.47;5011088;28;20894;-66
2022/06/25 08:29:00;;;;;;;7.50;2.50;;;;;;;22.04;76.93;100378.28;5015957;28;20220;-66
2022/06/25 08:31:29;;;;;;;2.80;2.30;;;;;;;22.04;77.10;100380.97;5006715;28;20283;-66
2022/06/25 08:33:58;;;;;;;5.33;2.50;;;;;;;22.04;77.27;100385.56;5005884;28;20207;-66
2022/06/25 08:36:25;;;;;;;5.17;2.63;;;;;;;22.03;77.59;100387.44;5025644;28;20319;-67
2022/06/25 08:38:53;;;;;;;6.07;2.80;;;;;;;21.99;78.40;100383.50;5023568;28;20618;-67
2022/06/25 08:41:21;;;;;;;4.90;2.50;;;;;;;21.97;78.72;100380.22;5022952;28;20678;-67
2022/06/25 08:43:50;;;;;;;8.63;2.90;;;;;;;21.94;79.16;100372.53;5018537;28;20655;-64
2022/06/25 08:46:19;;;;;;;6.57;3.40;;;;;;;22.01;79.88;100369.78;5018562;28;20308;-64
2022/06/25 08:48:50;;;;;;;3.83;2.70;;;;;;;22.21;80.15;100362.28;5024966;28;20642;-64
2022/06/25 08:51:21;;;;;;;4.57;2.60;;;;;;;22.42;78.79;100366.41;5023619;28;20677;-64
2022/06/25 08:53:50;;;;;;;7.80;2.50;;;;;;;22.66;76.87;100365.44;5021432;28;20205;-63
2022/06/25 08:56:19;;;;;;;7.80;2.07;;;;;;;22.85;74.35;100358.13;5028527;28;20236;-64
2022/06/25 08:58:47;;;;;;;5.33;2.57;;;;;;;22.94;73.91;100361.31;5023592;28;20219;-65
2022/06/25 09:01:17;;;;;;;5.83;3.20;;;;;;;23.01;73.30;100345.81;5023483;28;20209;-62
2022/06/25 09:03:44;;;;;;;4.38;2.30;;;;;;;22.97;72.70;100345.44;5028095;28;20623;-63
2022/06/25 09:06:14;;;;;;;3.73;2.47;;;;;;;22.94;72.29;100345.94;5028772;28;20200;-63
2022/06/25 09:08:43;;;;;;;5.90;2.20;;;;;;;22.94;72.78;100345.94;5025755;28;20208;-63
2022/06/25 09:11:11;;;;;;;5.22;2.00;;;;;;;23.05;71.93;100353.22;5028704;28;20584;-63
2022/06/25 09:13:39;;;;;;;8.33;2.30;;;;;;;23.21;71.47;100349.03;5022268;28;20239;-63
2022/06/25 09:16:07;;;;;;;4.00;2.40;;;;;;;23.40;70.41;100347.00;5020531;28;20241;-64
2022/06/25 09:18:36;;;;;;;5.63;1.93;;;;;;;23.53;69.65;100347.66;5023115;28;20213;-64
2022/06/25 09:21:07;;;;;;;3.90;2.35;;;;;;;23.53;68.60;100344.94;5020007;28;20224;-64
2022/06/25 09:23:36;;;;;;;10.38;2.80;;;;;;;23.55;68.14;100350.97;5019955;28;20230;-62
2022/06/25 09:26:06;;;;;;;22.55;6.43;;;;;;;23.61;68.29;100354.59;5025272;28;20204;-63
2022/06/25 09:28:35;;;;;;;15.45;3.97;;;;;;;23.82;67.84;100355.88;5022352;28;20293;-63
2022/06/25 09:31:04;;;;;;;17.65;6.97;;;;;;;23.97;67.39;100350.78;5023904;28;20693;-64
2022/06/25 09:33:33;;;;;;;4.30;2.28;;;;;;;24.02;66.04;100342.75;5019055;28;20205;-64
2022/06/25 09:36:03;;;;;;;5.93;2.15;;;;;;;24.11;64.96;100344.03;5017846;28;20247;-64
2022/06/25 09:38:32;;;;;;;5.60;2.95;;;;;;;24.22;65.41;100343.22;5012500;28;20304;-64
2022/06/25 09:41:01;;;;;;;3.45;2.22;;;;;;;24.28;65.84;100342.22;5009156;28;20218;-64
2022/06/25 09:43:35;;;;;;;2.70;1.63;;;;;;;24.55;61.37;100330.81;5020503;28;20223;-63
2022/06/25 09:46:04;;;;;;;4.47;1.90;;;;;;;24.63;62.32;100328.53;5025768;28;20218;-63
2022/06/25 09:48:34;;;;;;;5.50;1.60;;;;;;;24.75;57.73;100332.03;5023407;28;20633;-63
2022/06/25 09:51:09;;;;;;;6.05;1.90;;;;;;;24.77;60.70;100331.78;5026972;28;20880;-67
2022/06/25 09:53:46;;;;;;;7.63;1.70;;;;;;;24.84;61.38;100320.78;5033888;28;20218;-67
2022/06/25 09:56:15;;;;;;;3.97;1.52;;;;;;;24.98;60.28;100320.22;5029462;28;22233;-66
2022/06/25 09:58:44;;;;;;;3.42;2.40;;;;;;;25.05;60.63;100322.78;5022076;28;20210;-66
2022/06/25 10:01:16;;;;;;;5.30;1.70;;;;;;;25.18;58.65;100324.34;5024346;28;20210;-67
2022/06/25 10:03:45;;;;;;;5.05;1.90;;;;;;;25.18;57.33;100318.91;5024047;28;20296;-66
2022/06/25 10:06:15;;;;;;;3.78;1.58;;;;;;;25.15;55.87;100314.81;5026398;28;20208;-66
2022/06/25 10:08:48;;;;;;;3.70;1.88;;;;;;;25.07;56.64;100321.47;5020907;28;20236;-68
2022/06/25 10:11:18;;;;;;;3.42;1.95;;;;;;;25.27;57.07;100312.00;5025787;28;20566;-67
2022/06/25 10:13:48;;;;;;;4.20;1.55;;;;;;;25.36;57.88;100315.94;5030755;28;21656;-66
2022/06/25 10:16:17;;;;;;;6.95;1.88;;;;;;;25.35;58.51;100315.13;5023221;28;20244;-66
2022/06/25 10:18:45;;;;;;;5.00;1.88;;;;;;;25.48;56.53;100308.53;5023607;28;20279;-66
2022/06/25 10:21:15;;;;;;;6.65;1.70;;;;;;;25.74;56.97;100310.56;5026260;28;20215;-67
2022/06/25 10:23:44;;;;;;;3.58;1.75;;;;;;;25.82;56.15;100312.00;5024618;28;20236;-68
2022/06/25 10:26:13;;;;;;;5.65;1.80;;;;;;;25.89;56.80;100306.38;5027842;28;20213;-70
2022/06/25 10:28:41;;;;;;;4.22;1.58;;;;;;;26.06;54.66;100307.13;5026448;28;20299;-69
2022/06/25 10:31:13;;;;;;;4.93;1.85;;;;;;;26.21;53.05;100301.91;5024790;28;20601;-69
2022/06/25 10:33:53;;;;;;;5.22;1.80;;;;;;;26.21;53.54;100299.19;5024526;28;20209;-65
2022/06/25 10:36:42;;;;;;;7.72;1.95;;;;;;;26.29;51.86;100303.38;5024969;28;20235;-66
2022/06/25 10:39:36;;;;;;;6.22;2.00;;;;;;;26.36;51.18;100293.94;5017537;28;20307;-66
2022/06/25 10:45:46;;;;;;;3.25;1.77;;;;;;;26.59;49.24;100287.34;5024211;28;20662;-66
2022/06/25 10:48:14;;;;;;;5.63;1.35;;;;;;;26.75;50.34;100280.97;5016254;28;20197;-67
2022/06/25 10:50:49;;;;;;;3.13;1.38;;;;;;;26.75;51.50;100267.34;5021954;28;20206;-66
2022/06/25 10:53:20;;;;;;;6.93;1.77;;;;;;;26.74;50.87;100275.81;5017693;28;20201;-67
2022/06/25 10:56:17;;;;;;;3.13;1.63;;;;;;;26.82;48.26;100270.72;5020774;28;20702;-68
2022/06/25 10:58:47;;;;;;;6.30;1.70;;;;;;;26.92;48.68;100267.25;5020036;28;20312;-66
2022/06/25 11:01:33;;;;;;;4.35;1.60;;;;;;;26.94;48.18;100267.81;5016741;28;20252;-67
2022/06/25 11:04:06;;;;;;;4.35;1.63;;;;;;;27.01;48.86;100265.69;5023667;28;20664;-70
2022/06/25 11:06:38;;;;;;;3.65;1.60;;;;;;;26.99;49.66;100267.88;5024477;28;20220;-70
2022/06/25 11:09:11;;;;;;;4.35;2.10;;;;;;;27.17;48.29;100266.63;5023257;28;20720;-69
2022/06/25 11:11:40;;;;;;;4.65;1.70;;;;;;;27.22;48.53;100269.38;5017838;28;20255;-70
2022/06/25 11:14:21;;;;;;;5.70;1.88;;;;;;;27.40;48.27;100268.13;5017772;28;20304;-70
2022/06/25 11:16:51;;;;;;;3.35;1.40;;;;;;;27.35;49.98;100258.84;5009358;28;20301;-72
2022/06/25 11:19:19;;;;;;;2.72;1.42;;;;;;;27.43;49.48;100259.44;5018724;28;20220;-70
2022/06/25 11:21:48;;;;;;;3.65;1.25;;;;;;;27.47;48.45;100255.09;5022481;28;20291;-69
2022/06/25 11:24:19;;;;;;;4.25;1.63;;;;;;;27.35;48.38;100253.38;5017790;28;20202;-69
2022/06/25 11:29:38;;;;;;;4.00;1.77;;;;;;;27.51;48.28;100257.03;5011572;28;20219;-71
2022/06/25 11:32:08;;;;;;;4.95;1.77;;;;;;;27.55;49.18;100252.72;5020844;28;20287;-69
2022/06/25 11:34:36;;;;;;;6.13;1.50;;;;;;;27.63;48.33;100262.28;5016592;28;20213;-68
2022/06/25 11:37:07;;;;;;;3.40;1.40;;;;;;;27.75;47.08;100252.00;5019488;28;20216;-71
2022/06/25 11:39:38;;;;;;;3.17;1.42;;;;;;;27.88;47.46;100254.22;5025098;28;20227;-69
2022/06/25 11:42:10;;;;;;;3.50;1.65;;;;;;;27.76;46.52;100250.91;5029268;28;20344;-68
2022/06/25 11:44:39;;;;;;;3.38;1.45;;;;;;;27.57;46.83;100255.19;5024311;28;20299;-68
2022/06/25 11:47:07;;;;;;;3.53;1.55;;;;;;;27.55;46.30;100247.28;5021891;28;20291;-66